Terminal Aerodrome Forecast
Issued by NWS Spokane, WA

Home | Current Version | Previous Version | Text Only | Print | Product List | Glossary On
Versions: 1 2 3 4 5 6 7 8 9 10 11 12 13 14 15 16 17 18 19 20 21 22 23 24 25 26 27 28 29 30 31
000
FTUS46 KOTX 230202 AAA
TAFEAT
TAF AMD
KEAT 230202Z 2302/2324 28004KT 5SM -RA BR BKN009 OVC015
     FM230900 30004KT P6SM VCSH FEW007 BKN015 OVC050
     FM231600 31009KT P6SM SCT015 BKN050
     FM232100 29013KT P6SM SCT070 BKN100=

USA.gov is the U.S. government's official web portal to all federal, state and local government web resources and services.